sensor_id;sensor_type;location;lat;lon;timestamp;temperature;humidity
20337;DHT22;10326;53.660;10.200;2022-09-09T00:01:22;18.70;82.70
20337;DHT22;10326;53.660;10.200;2022-09-09T00:04:00;18.70;83.00
20337;DHT22;10326;53.660;10.200;2022-09-09T00:06:32;18.70;82.90
20337;DHT22;10326;53.660;10.200;2022-09-09T00:09:12;18.80;83.10
20337;DHT22;10326;53.660;10.200;2022-09-09T00:11:48;18.70;83.10
20337;DHT22;10326;53.660;10.200;2022-09-09T00:14:25;18.80;83.20
20337;DHT22;10326;53.660;10.200;2022-09-09T00:17:00;18.80;83.30
20337;DHT22;10326;53.660;10.200;2022-09-09T00:19:35;18.80;83.20
20337;DHT22;10326;53.660;10.200;2022-09-09T00:22:15;18.80;83.30
20337;DHT22;10326;53.660;10.200;2022-09-09T00:24:46;18.80;83.30
20337;DHT22;10326;53.660;10.200;2022-09-09T00:27:22;18.80;83.30
20337;DHT22;10326;53.660;10.200;2022-09-09T00:29:57;18.80;83.30
20337;DHT22;10326;53.660;10.200;2022-09-09T00:32:29;18.80;83.30
20337;DHT22;10326;53.660;10.200;2022-09-09T00:35:03;18.80;83.40
20337;DHT22;10326;53.660;10.200;2022-09-09T00:37:38;18.80;83.40
20337;DHT22;10326;53.660;10.200;2022-09-09T00:40:18;18.90;83.40
20337;DHT22;10326;53.660;10.200;2022-09-09T00:46:15;18.90;83.60
20337;DHT22;10326;53.660;10.200;2022-09-09T00:48:54;18.90;83.60
20337;DHT22;10326;53.660;10.200;2022-09-09T00:51:37;18.90;83.50
20337;DHT22;10326;53.660;10.200;2022-09-09T00:54:24;18.90;83.70
20337;DHT22;10326;53.660;10.200;2022-09-09T00:57:07;18.90;83.60
20337;DHT22;10326;53.660;10.200;2022-09-09T00:59:47;18.90;83.60
20337;DHT22;10326;53.660;10.200;2022-09-09T01:02:25;18.90;83.70
20337;DHT22;10326;53.660;10.200;2022-09-09T01:04:55;18.90;83.80
20337;DHT22;10326;53.660;10.200;2022-09-09T01:07:25;18.90;83.60
20337;DHT22;10326;53.660;10.200;2022-09-09T01:09:56;18.90;83.60
20337;DHT22;10326;53.660;10.200;2022-09-09T01:12:27;18.90;83.70
20337;DHT22;10326;53.660;10.200;2022-09-09T01:15:04;18.90;83.70
20337;DHT22;10326;53.660;10.200;2022-09-09T01:17:49;18.90;83.80
20337;DHT22;10326;53.660;10.200;2022-09-09T01:20:23;18.90;83.90
20337;DHT22;10326;53.660;10.200;2022-09-09T01:23:10;18.90;83.70
20337;DHT22;10326;53.660;10.200;2022-09-09T01:26:18;18.90;83.90
20337;DHT22;10326;53.660;10.200;2022-09-09T01:28:49;18.90;83.80
20337;DHT22;10326;53.660;10.200;2022-09-09T01:31:22;18.90;83.70
20337;DHT22;10326;53.660;10.200;2022-09-09T01:33:53;18.90;83.80
20337;DHT22;10326;53.660;10.200;2022-09-09T01:36:32;18.90;83.80
20337;DHT22;10326;53.660;10.200;2022-09-09T01:39:04;18.90;84.00
20337;DHT22;10326;53.660;10.200;2022-09-09T01:41:34;18.90;83.80
20337;DHT22;10326;53.660;10.200;2022-09-09T01:44:13;18.90;83.70
20337;DHT22;10326;53.660;10.200;2022-09-09T01:46:43;18.90;83.60
20337;DHT22;10326;53.660;10.200;2022-09-09T01:49:16;18.90;83.70
20337;DHT22;10326;53.660;10.200;2022-09-09T01:51:46;18.90;83.60
20337;DHT22;10326;53.660;10.200;2022-09-09T01:54:19;18.90;83.60
20337;DHT22;10326;53.660;10.200;2022-09-09T01:56:54;18.90;83.60
20337;DHT22;10326;53.660;10.200;2022-09-09T01:59:53;18.90;83.70
20337;DHT22;10326;53.660;10.200;2022-09-09T02:02:46;18.90;84.30
20337;DHT22;10326;53.660;10.200;2022-09-09T02:05:30;18.90;83.60
20337;DHT22;10326;53.660;10.200;2022-09-09T02:08:06;18.90;83.60
20337;DHT22;10326;53.660;10.200;2022-09-09T02:10:55;18.90;83.60
20337;DHT22;10326;53.660;10.200;2022-09-09T02:13:37;18.90;83.60
20337;DHT22;10326;53.660;10.200;2022-09-09T02:16:12;18.80;83.50
20337;DHT22;10326;53.660;10.200;2022-09-09T02:18:49;18.80;83.50
20337;DHT22;10326;53.660;10.200;2022-09-09T02:21:22;18.80;83.60
20337;DHT22;10326;53.660;10.200;2022-09-09T02:23:50;18.80;83.40
20337;DHT22;10326;53.660;10.200;2022-09-09T02:26:20;18.80;83.50
20337;DHT22;10326;53.660;10.200;2022-09-09T02:28:57;18.80;83.50
20337;DHT22;10326;53.660;10.200;2022-09-09T02:31:26;18.80;83.60
20337;DHT22;10326;53.660;10.200;2022-09-09T02:34:01;18.80;83.50
20337;DHT22;10326;53.660;10.200;2022-09-09T02:36:32;18.80;83.60
20337;DHT22;10326;53.660;10.200;2022-09-09T02:39:01;18.80;83.60
20337;DHT22;10326;53.660;10.200;2022-09-09T02:41:36;18.80;83.60
20337;DHT22;10326;53.660;10.200;2022-09-09T02:44:10;18.80;83.60
20337;DHT22;10326;53.660;10.200;2022-09-09T02:46:52;18.80;83.70
20337;DHT22;10326;53.660;10.200;2022-09-09T02:49:35;18.80;83.80
20337;DHT22;10326;53.660;10.200;2022-09-09T02:52:08;18.80;83.80
20337;DHT22;10326;53.660;10.200;2022-09-09T02:54:41;18.80;83.60
20337;DHT22;10326;53.660;10.200;2022-09-09T02:57:12;18.80;83.70
20337;DHT22;10326;53.660;10.200;2022-09-09T02:59:47;18.70;83.70
20337;DHT22;10326;53.660;10.200;2022-09-09T03:02:15;18.80;83.80
20337;DHT22;10326;53.660;10.200;2022-09-09T03:04:47;18.80;83.80
20337;DHT22;10326;53.660;10.200;2022-09-09T03:07:17;18.80;83.90
20337;DHT22;10326;53.660;10.200;2022-09-09T03:09:45;18.80;83.90
20337;DHT22;10326;53.660;10.200;2022-09-09T03:12:13;18.70;83.80
20337;DHT22;10326;53.660;10.200;2022-09-09T03:14:40;18.70;83.90
20337;DHT22;10326;53.660;10.200;2022-09-09T03:17:09;18.70;83.90
20337;DHT22;10326;53.660;10.200;2022-09-09T03:19:43;18.70;83.90
20337;DHT22;10326;53.660;10.200;2022-09-09T03:22:13;18.70;83.80
20337;DHT22;10326;53.660;10.200;2022-09-09T03:24:42;18.70;83.80
20337;DHT22;10326;53.660;10.200;2022-09-09T03:27:09;18.70;83.80
20337;DHT22;10326;53.660;10.200;2022-09-09T03:29:38;18.70;83.80
20337;DHT22;10326;53.660;10.200;2022-09-09T03:32:10;18.70;83.80
20337;DHT22;10326;53.660;10.200;2022-09-09T03:34:39;18.70;83.80
20337;DHT22;10326;53.660;10.200;2022-09-09T03:37:09;18.70;83.80
20337;DHT22;10326;53.660;10.200;2022-09-09T03:39:36;18.70;83.80
20337;DHT22;10326;53.660;10.200;2022-09-09T03:42:04;18.70;83.80
20337;DHT22;10326;53.660;10.200;2022-09-09T03:44:32;18.70;83.80
20337;DHT22;10326;53.660;10.200;2022-09-09T03:46:59;18.70;84.40
20337;DHT22;10326;53.660;10.200;2022-09-09T03:49:28;18.70;83.90
20337;DHT22;10326;53.660;10.200;2022-09-09T03:51:56;18.70;83.80
20337;DHT22;10326;53.660;10.200;2022-09-09T03:54:24;18.70;83.80
20337;DHT22;10326;53.660;10.200;2022-09-09T03:56:51;18.70;83.90
20337;DHT22;10326;53.660;10.200;2022-09-09T03:59:20;18.70;83.80
20337;DHT22;10326;53.660;10.200;2022-09-09T04:01:49;18.70;83.90
20337;DHT22;10326;53.660;10.200;2022-09-09T04:04:16;18.70;83.80
20337;DHT22;10326;53.660;10.200;2022-09-09T04:06:47;18.70;83.80
20337;DHT22;10326;53.660;10.200;2022-09-09T04:09:14;18.70;83.70
20337;DHT22;10326;53.660;10.200;2022-09-09T04:11:42;18.70;83.70
20337;DHT22;10326;53.660;10.200;2022-09-09T04:14:09;18.70;83.70
20337;DHT22;10326;53.660;10.200;2022-09-09T04:16:36;18.60;83.60
20337;DHT22;10326;53.660;10.200;2022-09-09T04:19:03;18.60;83.50
20337;DHT22;10326;53.660;10.200;2022-09-09T04:21:32;18.60;83.50
20337;DHT22;10326;53.660;10.200;2022-09-09T04:24:02;18.60;83.50
20337;DHT22;10326;53.660;10.200;2022-09-09T04:26:30;18.60;83.40
20337;DHT22;10326;53.660;10.200;2022-09-09T04:28:58;18.60;83.40
20337;DHT22;10326;53.660;10.200;2022-09-09T04:31:25;18.60;83.30
20337;DHT22;10326;53.660;10.200;2022-09-09T04:33:55;18.60;83.30
20337;DHT22;10326;53.660;10.200;2022-09-09T04:36:23;18.50;83.40
20337;DHT22;10326;53.660;10.200;2022-09-09T04:38:55;18.50;83.40
20337;DHT22;10326;53.660;10.200;2022-09-09T04:41:23;18.50;83.40
20337;DHT22;10326;53.660;10.200;2022-09-09T04:43:52;18.50;83.30
20337;DHT22;10326;53.660;10.200;2022-09-09T04:46:21;18.50;83.30
20337;DHT22;10326;53.660;10.200;2022-09-09T04:48:48;18.50;83.30
20337;DHT22;10326;53.660;10.200;2022-09-09T04:51:18;18.50;83.30
20337;DHT22;10326;53.660;10.200;2022-09-09T04:53:47;18.50;83.30
20337;DHT22;10326;53.660;10.200;2022-09-09T04:56:17;18.50;83.40
20337;DHT22;10326;53.660;10.200;2022-09-09T04:58:51;18.50;83.50
20337;DHT22;10326;53.660;10.200;2022-09-09T05:01:22;18.40;83.50
20337;DHT22;10326;53.660;10.200;2022-09-09T05:03:51;18.40;83.50
20337;DHT22;10326;53.660;10.200;2022-09-09T05:06:22;18.40;83.60
20337;DHT22;10326;53.660;10.200;2022-09-09T05:08:54;18.40;83.60
20337;DHT22;10326;53.660;10.200;2022-09-09T05:11:28;18.40;83.60
20337;DHT22;10326;53.660;10.200;2022-09-09T05:14:31;18.40;83.70
20337;DHT22;10326;53.660;10.200;2022-09-09T05:17:00;18.40;83.70
20337;DHT22;10326;53.660;10.200;2022-09-09T05:19:27;18.40;83.80
20337;DHT22;10326;53.660;10.200;2022-09-09T05:21:54;18.40;83.80
20337;DHT22;10326;53.660;10.200;2022-09-09T05:24:29;18.40;83.80
20337;DHT22;10326;53.660;10.200;2022-09-09T05:26:59;18.40;83.80
20337;DHT22;10326;53.660;10.200;2022-09-09T05:29:28;18.50;83.90
20337;DHT22;10326;53.660;10.200;2022-09-09T05:31:57;18.50;83.90
20337;DHT22;10326;53.660;10.200;2022-09-09T05:34:25;18.50;84.00
20337;DHT22;10326;53.660;10.200;2022-09-09T05:36:52;18.50;84.00
20337;DHT22;10326;53.660;10.200;2022-09-09T05:39:21;18.50;83.90
20337;DHT22;10326;53.660;10.200;2022-09-09T05:41:48;18.50;83.90
20337;DHT22;10326;53.660;10.200;2022-09-09T05:44:16;18.50;84.00
20337;DHT22;10326;53.660;10.200;2022-09-09T05:46:45;18.50;84.00
20337;DHT22;10326;53.660;10.200;2022-09-09T05:49:15;18.50;84.10
20337;DHT22;10326;53.660;10.200;2022-09-09T05:51:43;18.50;84.10
20337;DHT22;10326;53.660;10.200;2022-09-09T05:54:13;18.50;84.10
20337;DHT22;10326;53.660;10.200;2022-09-09T05:56:44;18.50;84.10
20337;DHT22;10326;53.660;10.200;2022-09-09T05:59:12;18.50;84.20
20337;DHT22;10326;53.660;10.200;2022-09-09T06:01:40;18.50;84.20
20337;DHT22;10326;53.660;10.200;2022-09-09T06:04:16;18.50;84.20
20337;DHT22;10326;53.660;10.200;2022-09-09T06:06:43;18.50;84.30
20337;DHT22;10326;53.660;10.200;2022-09-09T06:09:14;18.50;84.40
20337;DHT22;10326;53.660;10.200;2022-09-09T06:11:42;18.50;84.40
20337;DHT22;10326;53.660;10.200;2022-09-09T06:14:10;18.50;84.50
20337;DHT22;10326;53.660;10.200;2022-09-09T06:16:39;18.60;84.50
20337;DHT22;10326;53.660;10.200;2022-09-09T06:19:16;18.60;84.60
20337;DHT22;10326;53.660;10.200;2022-09-09T06:21:43;18.60;84.60
20337;DHT22;10326;53.660;10.200;2022-09-09T06:24:12;18.60;84.60
20337;DHT22;10326;53.660;10.200;2022-09-09T06:26:43;18.60;84.50
20337;DHT22;10326;53.660;10.200;2022-09-09T06:29:13;18.60;84.60
20337;DHT22;10326;53.660;10.200;2022-09-09T06:31:41;18.60;84.70
20337;DHT22;10326;53.660;10.200;2022-09-09T06:34:15;18.70;84.80
20337;DHT22;10326;53.660;10.200;2022-09-09T06:36:46;18.70;84.90
20337;DHT22;10326;53.660;10.200;2022-09-09T06:39:14;18.70;85.00
20337;DHT22;10326;53.660;10.200;2022-09-09T06:41:41;18.70;85.00
20337;DHT22;10326;53.660;10.200;2022-09-09T06:44:21;18.70;85.00
20337;DHT22;10326;53.660;10.200;2022-09-09T06:46:48;18.70;85.10
20337;DHT22;10326;53.660;10.200;2022-09-09T06:49:17;18.80;85.30
20337;DHT22;10326;53.660;10.200;2022-09-09T06:51:45;18.80;85.30
20337;DHT22;10326;53.660;10.200;2022-09-09T06:54:13;18.80;85.30
20337;DHT22;10326;53.660;10.200;2022-09-09T06:56:43;18.80;85.10
20337;DHT22;10326;53.660;10.200;2022-09-09T06:59:20;18.80;85.00
20337;DHT22;10326;53.660;10.200;2022-09-09T07:01:48;18.90;85.10
20337;DHT22;10326;53.660;10.200;2022-09-09T07:04:19;18.90;85.20
20337;DHT22;10326;53.660;10.200;2022-09-09T07:06:46;18.90;85.30
20337;DHT22;10326;53.660;10.200;2022-09-09T07:09:18;18.90;85.20
20337;DHT22;10326;53.660;10.200;2022-09-09T07:11:49;18.90;85.30
20337;DHT22;10326;53.660;10.200;2022-09-09T07:14:20;18.90;85.30
20337;DHT22;10326;53.660;10.200;2022-09-09T07:16:53;18.90;85.20
20337;DHT22;10326;53.660;10.200;2022-09-09T07:19:21;18.90;85.20
20337;DHT22;10326;53.660;10.200;2022-09-09T07:21:51;19.00;85.20
20337;DHT22;10326;53.660;10.200;2022-09-09T07:24:21;19.00;85.40
20337;DHT22;10326;53.660;10.200;2022-09-09T07:26:50;19.00;85.40
20337;DHT22;10326;53.660;10.200;2022-09-09T07:29:17;19.00;85.40
20337;DHT22;10326;53.660;10.200;2022-09-09T07:31:45;19.00;85.50
20337;DHT22;10326;53.660;10.200;2022-09-09T07:34:17;19.00;85.40
20337;DHT22;10326;53.660;10.200;2022-09-09T07:36:46;19.00;85.40
20337;DHT22;10326;53.660;10.200;2022-09-09T07:39:16;19.00;85.50
20337;DHT22;10326;53.660;10.200;2022-09-09T07:41:48;19.10;85.70
20337;DHT22;10326;53.660;10.200;2022-09-09T07:44:22;19.10;85.60
20337;DHT22;10326;53.660;10.200;2022-09-09T07:47:03;19.10;85.60
20337;DHT22;10326;53.660;10.200;2022-09-09T07:49:36;19.10;85.60
20337;DHT22;10326;53.660;10.200;2022-09-09T07:52:05;19.10;86.20
20337;DHT22;10326;53.660;10.200;2022-09-09T07:54:33;19.10;85.90
20337;DHT22;10326;53.660;10.200;2022-09-09T07:57:04;19.20;86.10
20337;DHT22;10326;53.660;10.200;2022-09-09T07:59:34;19.20;86.30
20337;DHT22;10326;53.660;10.200;2022-09-09T08:02:02;19.20;86.30
20337;DHT22;10326;53.660;10.200;2022-09-09T08:04:32;19.30;86.50
20337;DHT22;10326;53.660;10.200;2022-09-09T08:07:01;19.30;86.50
20337;DHT22;10326;53.660;10.200;2022-09-09T08:09:35;19.30;86.60
20337;DHT22;10326;53.660;10.200;2022-09-09T08:12:09;19.40;86.60
20337;DHT22;10326;53.660;10.200;2022-09-09T08:14:36;19.40;86.60
20337;DHT22;10326;53.660;10.200;2022-09-09T08:17:03;19.40;86.80
20337;DHT22;10326;53.660;10.200;2022-09-09T08:19:32;19.50;87.00
20337;DHT22;10326;53.660;10.200;2022-09-09T08:22:03;19.50;87.50
20337;DHT22;10326;53.660;10.200;2022-09-09T08:24:32;19.60;86.90
20337;DHT22;10326;53.660;10.200;2022-09-09T08:27:03;19.60;86.80
20337;DHT22;10326;53.660;10.200;2022-09-09T08:29:32;19.60;86.90
20337;DHT22;10326;53.660;10.200;2022-09-09T08:31:59;19.70;87.00
20337;DHT22;10326;53.660;10.200;2022-09-09T08:34:28;19.70;86.80
20337;DHT22;10326;53.660;10.200;2022-09-09T08:36:59;19.70;86.80
20337;DHT22;10326;53.660;10.200;2022-09-09T08:39:33;19.80;87.00
20337;DHT22;10326;53.660;10.200;2022-09-09T08:42:15;19.80;87.00
20337;DHT22;10326;53.660;10.200;2022-09-09T08:45:24;19.90;86.70
20337;DHT22;10326;53.660;10.200;2022-09-09T08:48:10;19.90;86.40
20337;DHT22;10326;53.660;10.200;2022-09-09T08:50:44;19.90;86.00
20337;DHT22;10326;53.660;10.200;2022-09-09T08:53:20;19.90;85.90
20337;DHT22;10326;53.660;10.200;2022-09-09T08:55:52;19.90;85.80
20337;DHT22;10326;53.660;10.200;2022-09-09T08:58:34;19.90;85.90
20337;DHT22;10326;53.660;10.200;2022-09-09T09:01:22;19.90;86.10
20337;DHT22;10326;53.660;10.200;2022-09-09T09:04:05;19.90;86.20
20337;DHT22;10326;53.660;10.200;2022-09-09T09:06:45;19.90;86.10
20337;DHT22;10326;53.660;10.200;2022-09-09T09:09:21;19.90;86.10
20337;DHT22;10326;53.660;10.200;2022-09-09T09:11:55;20.00;86.10
20337;DHT22;10326;53.660;10.200;2022-09-09T09:14:31;20.00;86.20
20337;DHT22;10326;53.660;10.200;2022-09-09T09:17:04;20.00;86.10
20337;DHT22;10326;53.660;10.200;2022-09-09T09:19:35;20.00;86.00
20337;DHT22;10326;53.660;10.200;2022-09-09T09:22:13;20.10;86.00
20337;DHT22;10326;53.660;10.200;2022-09-09T09:24:51;20.10;86.00
20337;DHT22;10326;53.660;10.200;2022-09-09T09:27:30;20.10;85.60
20337;DHT22;10326;53.660;10.200;2022-09-09T09:30:02;20.10;85.00
20337;DHT22;10326;53.660;10.200;2022-09-09T09:32:42;20.20;85.50
20337;DHT22;10326;53.660;10.200;2022-09-09T09:35:16;20.20;85.70
20337;DHT22;10326;53.660;10.200;2022-09-09T09:37:44;20.20;85.70
20337;DHT22;10326;53.660;10.200;2022-09-09T09:40:13;20.20;85.70
20337;DHT22;10326;53.660;10.200;2022-09-09T09:42:49;20.30;85.80
20337;DHT22;10326;53.660;10.200;2022-09-09T09:45:28;20.30;86.10
20337;DHT22;10326;53.660;10.200;2022-09-09T09:47:59;20.40;86.20
20337;DHT22;10326;53.660;10.200;2022-09-09T09:50:30;20.40;86.00
20337;DHT22;10326;53.660;10.200;2022-09-09T09:52:59;20.40;85.80
20337;DHT22;10326;53.660;10.200;2022-09-09T09:55:31;20.50;85.70
20337;DHT22;10326;53.660;10.200;2022-09-09T09:58:02;20.50;85.40
20337;DHT22;10326;53.660;10.200;2022-09-09T10:00:32;20.50;85.10
20337;DHT22;10326;53.660;10.200;2022-09-09T10:03:23;20.50;84.50
20337;DHT22;10326;53.660;10.200;2022-09-09T10:05:54;20.60;84.40
20337;DHT22;10326;53.660;10.200;2022-09-09T10:08:24;20.60;84.90
20337;DHT22;10326;53.660;10.200;2022-09-09T10:11:22;20.60;85.10
20337;DHT22;10326;53.660;10.200;2022-09-09T10:14:03;20.70;85.20
20337;DHT22;10326;53.660;10.200;2022-09-09T10:16:45;20.70;85.20
20337;DHT22;10326;53.660;10.200;2022-09-09T10:19:26;20.70;85.50
20337;DHT22;10326;53.660;10.200;2022-09-09T10:22:14;20.80;85.30
20337;DHT22;10326;53.660;10.200;2022-09-09T10:25:03;20.90;85.00
20337;DHT22;10326;53.660;10.200;2022-09-09T10:27:45;20.90;85.00
20337;DHT22;10326;53.660;10.200;2022-09-09T10:30:20;21.00;85.10
20337;DHT22;10326;53.660;10.200;2022-09-09T10:33:00;21.10;85.20
20337;DHT22;10326;53.660;10.200;2022-09-09T10:35:34;21.10;85.00
20337;DHT22;10326;53.660;10.200;2022-09-09T10:38:13;21.10;84.50
20337;DHT22;10326;53.660;10.200;2022-09-09T10:40:50;21.20;84.60
20337;DHT22;10326;53.660;10.200;2022-09-09T10:43:41;21.20;84.10
20337;DHT22;10326;53.660;10.200;2022-09-09T10:46:21;21.30;83.80
20337;DHT22;10326;53.660;10.200;2022-09-09T10:49:05;21.30;83.70
20337;DHT22;10326;53.660;10.200;2022-09-09T10:51:45;21.30;83.40
20337;DHT22;10326;53.660;10.200;2022-09-09T10:54:32;21.40;83.60
20337;DHT22;10326;53.660;10.200;2022-09-09T10:57:12;21.40;83.70
20337;DHT22;10326;53.660;10.200;2022-09-09T10:59:53;21.40;83.60
20337;DHT22;10326;53.660;10.200;2022-09-09T11:02:27;21.50;83.30
20337;DHT22;10326;53.660;10.200;2022-09-09T11:05:00;21.50;83.30
20337;DHT22;10326;53.660;10.200;2022-09-09T11:07:34;21.60;83.50
20337;DHT22;10326;53.660;10.200;2022-09-09T11:10:16;21.70;83.30
20337;DHT22;10326;53.660;10.200;2022-09-09T11:12:46;21.70;82.70
20337;DHT22;10326;53.660;10.200;2022-09-09T11:15:17;21.80;83.40
20337;DHT22;10326;53.660;10.200;2022-09-09T11:17:49;21.90;83.30
20337;DHT22;10326;53.660;10.200;2022-09-09T11:20:19;21.90;83.10
20337;DHT22;10326;53.660;10.200;2022-09-09T11:22:50;22.00;82.70
20337;DHT22;10326;53.660;10.200;2022-09-09T11:25:22;22.00;82.10
20337;DHT22;10326;53.660;10.200;2022-09-09T11:28:06;22.00;81.80
20337;DHT22;10326;53.660;10.200;2022-09-09T11:30:48;22.00;81.60
20337;DHT22;10326;53.660;10.200;2022-09-09T11:36:48;22.10;81.90
20337;DHT22;10326;53.660;10.200;2022-09-09T11:39:54;22.10;82.20
20337;DHT22;10326;53.660;10.200;2022-09-09T11:42:27;22.20;82.40
20337;DHT22;10326;53.660;10.200;2022-09-09T11:44:54;22.20;82.80
20337;DHT22;10326;53.660;10.200;2022-09-09T11:47:25;22.30;82.60
20337;DHT22;10326;53.660;10.200;2022-09-09T11:49:55;22.40;82.50
20337;DHT22;10326;53.660;10.200;2022-09-09T11:52:39;22.40;82.10
20337;DHT22;10326;53.660;10.200;2022-09-09T11:55:10;22.50;81.80
20337;DHT22;10326;53.660;10.200;2022-09-09T11:57:39;22.50;81.80
20337;DHT22;10326;53.660;10.200;2022-09-09T12:02:59;22.60;81.10
20337;DHT22;10326;53.660;10.200;2022-09-09T12:05:36;22.70;80.90
20337;DHT22;10326;53.660;10.200;2022-09-09T12:08:07;22.70;81.10
20337;DHT22;10326;53.660;10.200;2022-09-09T12:10:38;22.70;81.10
20337;DHT22;10326;53.660;10.200;2022-09-09T12:13:16;22.70;81.00
20337;DHT22;10326;53.660;10.200;2022-09-09T12:15:48;22.80;80.40
20337;DHT22;10326;53.660;10.200;2022-09-09T12:18:23;22.80;81.10
20337;DHT22;10326;53.660;10.200;2022-09-09T12:20:57;22.80;81.20
20337;DHT22;10326;53.660;10.200;2022-09-09T12:23:37;22.90;81.20
20337;DHT22;10326;53.660;10.200;2022-09-09T12:26:30;22.90;81.10
20337;DHT22;10326;53.660;10.200;2022-09-09T12:29:08;23.00;81.20
20337;DHT22;10326;53.660;10.200;2022-09-09T12:31:48;23.10;80.30
20337;DHT22;10326;53.660;10.200;2022-09-09T12:34:32;23.10;80.30
20337;DHT22;10326;53.660;10.200;2022-09-09T12:37:06;23.10;79.60
20337;DHT22;10326;53.660;10.200;2022-09-09T12:39:45;23.20;79.30
20337;DHT22;10326;53.660;10.200;2022-09-09T12:42:17;23.10;78.80
20337;DHT22;10326;53.660;10.200;2022-09-09T12:44:52;23.10;78.80
20337;DHT22;10326;53.660;10.200;2022-09-09T12:47:21;23.10;78.90
20337;DHT22;10326;53.660;10.200;2022-09-09T12:49:52;23.10;78.90
20337;DHT22;10326;53.660;10.200;2022-09-09T12:52:25;23.10;78.80
20337;DHT22;10326;53.660;10.200;2022-09-09T12:54:57;23.00;78.20
20337;DHT22;10326;53.660;10.200;2022-09-09T12:57:34;23.00;78.00
20337;DHT22;10326;53.660;10.200;2022-09-09T13:00:22;23.00;78.30
20337;DHT22;10326;53.660;10.200;2022-09-09T13:02:53;23.00;78.20
20337;DHT22;10326;53.660;10.200;2022-09-09T13:05:23;23.00;78.70
20337;DHT22;10326;53.660;10.200;2022-09-09T13:07:59;22.90;78.60
20337;DHT22;10326;53.660;10.200;2022-09-09T13:10:30;23.00;78.90
20337;DHT22;10326;53.660;10.200;2022-09-09T13:12:59;23.00;78.80
20337;DHT22;10326;53.660;10.200;2022-09-09T13:15:28;23.00;78.90
20337;DHT22;10326;53.660;10.200;2022-09-09T13:17:57;23.00;78.60
20337;DHT22;10326;53.660;10.200;2022-09-09T13:20:27;23.00;78.60
20337;DHT22;10326;53.660;10.200;2022-09-09T13:22:55;23.00;78.40
20337;DHT22;10326;53.660;10.200;2022-09-09T13:25:25;23.00;78.30
20337;DHT22;10326;53.660;10.200;2022-09-09T13:27:57;23.00;78.30
20337;DHT22;10326;53.660;10.200;2022-09-09T13:30:28;23.00;78.20
20337;DHT22;10326;53.660;10.200;2022-09-09T13:33:21;23.00;78.20
20337;DHT22;10326;53.660;10.200;2022-09-09T13:35:50;23.00;78.30
20337;DHT22;10326;53.660;10.200;2022-09-09T13:38:20;23.00;78.30
20337;DHT22;10326;53.660;10.200;2022-09-09T13:40:55;23.00;78.30
20337;DHT22;10326;53.660;10.200;2022-09-09T13:43:26;22.90;78.40
20337;DHT22;10326;53.660;10.200;2022-09-09T13:45:55;22.90;78.60
20337;DHT22;10326;53.660;10.200;2022-09-09T13:48:24;22.90;78.50
20337;DHT22;10326;53.660;10.200;2022-09-09T13:51:00;22.90;78.60
20337;DHT22;10326;53.660;10.200;2022-09-09T13:53:31;22.80;78.70
20337;DHT22;10326;53.660;10.200;2022-09-09T13:55:59;22.80;78.70
20337;DHT22;10326;53.660;10.200;2022-09-09T13:58:28;22.70;78.80
20337;DHT22;10326;53.660;10.200;2022-09-09T14:00:55;22.70;78.90
20337;DHT22;10326;53.660;10.200;2022-09-09T14:03:22;22.70;78.90
20337;DHT22;10326;53.660;10.200;2022-09-09T14:05:50;22.60;79.10
20337;DHT22;10326;53.660;10.200;2022-09-09T14:08:25;22.60;79.20
20337;DHT22;10326;53.660;10.200;2022-09-09T14:10:54;22.60;79.50
20337;DHT22;10326;53.660;10.200;2022-09-09T14:13:23;22.50;80.10
20337;DHT22;10326;53.660;10.200;2022-09-09T14:15:52;22.50;79.60
20337;DHT22;10326;53.660;10.200;2022-09-09T14:18:19;22.50;79.30
20337;DHT22;10326;53.660;10.200;2022-09-09T14:20:48;22.40;79.40
20337;DHT22;10326;53.660;10.200;2022-09-09T14:23:16;22.30;79.40
20337;DHT22;10326;53.660;10.200;2022-09-09T14:25:44;22.20;79.50
20337;DHT22;10326;53.660;10.200;2022-09-09T14:28:13;22.20;79.50
20337;DHT22;10326;53.660;10.200;2022-09-09T14:30:42;22.10;79.80
20337;DHT22;10326;53.660;10.200;2022-09-09T14:33:13;22.00;79.80
20337;DHT22;10326;53.660;10.200;2022-09-09T14:35:41;22.00;80.00
20337;DHT22;10326;53.660;10.200;2022-09-09T14:38:10;21.90;79.90
20337;DHT22;10326;53.660;10.200;2022-09-09T14:40:37;21.90;80.00
20337;DHT22;10326;53.660;10.200;2022-09-09T14:43:05;21.80;80.10
20337;DHT22;10326;53.660;10.200;2022-09-09T14:45:33;21.80;80.30
20337;DHT22;10326;53.660;10.200;2022-09-09T14:48:03;21.80;80.50
20337;DHT22;10326;53.660;10.200;2022-09-09T14:50:32;21.70;80.70
20337;DHT22;10326;53.660;10.200;2022-09-09T14:53:00;21.70;81.00
20337;DHT22;10326;53.660;10.200;2022-09-09T14:55:27;21.70;81.00
20337;DHT22;10326;53.660;10.200;2022-09-09T14:57:56;21.70;81.10
20337;DHT22;10326;53.660;10.200;2022-09-09T15:00:23;21.60;81.20
20337;DHT22;10326;53.660;10.200;2022-09-09T15:02:52;21.60;81.20
20337;DHT22;10326;53.660;10.200;2022-09-09T15:05:19;21.60;81.40
20337;DHT22;10326;53.660;10.200;2022-09-09T15:07:48;21.50;81.40
20337;DHT22;10326;53.660;10.200;2022-09-09T15:10:16;21.60;81.50
20337;DHT22;10326;53.660;10.200;2022-09-09T15:12:43;21.50;81.40
20337;DHT22;10326;53.660;10.200;2022-09-09T15:15:10;21.50;81.30
20337;DHT22;10326;53.660;10.200;2022-09-09T15:17:39;21.50;81.40
20337;DHT22;10326;53.660;10.200;2022-09-09T15:20:07;21.40;81.30
20337;DHT22;10326;53.660;10.200;2022-09-09T15:22:35;21.40;81.30
20337;DHT22;10326;53.660;10.200;2022-09-09T15:25:05;21.40;81.30
20337;DHT22;10326;53.660;10.200;2022-09-09T15:27:33;21.40;81.10
20337;DHT22;10326;53.660;10.200;2022-09-09T15:30:01;21.30;81.10
20337;DHT22;10326;53.660;10.200;2022-09-09T15:32:28;21.30;81.20
20337;DHT22;10326;53.660;10.200;2022-09-09T15:34:55;21.30;81.30
20337;DHT22;10326;53.660;10.200;2022-09-09T15:37:22;21.30;81.40
20337;DHT22;10326;53.660;10.200;2022-09-09T15:39:49;21.20;81.40
20337;DHT22;10326;53.660;10.200;2022-09-09T15:42:18;21.20;81.40
20337;DHT22;10326;53.660;10.200;2022-09-09T15:44:45;21.20;81.50
20337;DHT22;10326;53.660;10.200;2022-09-09T15:47:12;21.20;81.60
20337;DHT22;10326;53.660;10.200;2022-09-09T15:49:40;21.20;81.70
20337;DHT22;10326;53.660;10.200;2022-09-09T15:52:10;21.10;81.70
20337;DHT22;10326;53.660;10.200;2022-09-09T15:54:37;21.10;82.00
20337;DHT22;10326;53.660;10.200;2022-09-09T15:57:07;21.10;82.00
20337;DHT22;10326;53.660;10.200;2022-09-09T15:59:39;21.10;82.10